Time;durP1;ratioP1;P1;durP2;ratioP2;P2;SDS_P1;SDS_P2;PMS_P1;PMS_P2;Temp;Humidity;BMP_temperature;BMP_pressure;BME280_temperature;BME280_humidity;BME280_pressure;Samples;Min_cycle;Max_cycle;Signal;HPM_P1;HPM_P2
2023/06/05 00:02:18;;;;;;;2.85;2.58;;;;;;;26.70;37.11;101361.44;21076181;28;20113;-62
2023/06/05 00:12:20;;;;;;;3.50;2.85;;;;;;;26.70;37.11;101351.03;21075407;28;20048;-62
2023/06/05 00:22:21;;;;;;;3.15;2.85;;;;;;;26.68;37.29;101350.53;21090880;28;20043;-62
2023/06/05 00:32:25;;;;;;;3.33;3.03;;;;;;;26.67;37.12;101351.66;21088988;28;20043;-62
2023/06/05 00:42:27;;;;;;;2.70;2.45;;;;;;;26.65;36.95;101359.56;21088871;28;20070;-62
2023/06/05 00:52:28;;;;;;;4.00;2.55;;;;;;;26.67;37.10;101362.91;21087590;28;20043;-62
2023/06/05 01:02:30;;;;;;;2.80;2.50;;;;;;;26.66;37.03;101369.63;21087293;28;20033;-62
2023/06/05 01:12:54;;;;;;;3.50;2.80;;;;;;;26.60;37.11;101391.34;21085748;28;20051;-61
2023/06/05 01:22:57;;;;;;;2.88;2.63;;;;;;;26.65;37.10;101407.28;21085339;28;20364;-61
2023/06/05 01:33:12;;;;;;;2.78;2.58;;;;;;;26.63;37.61;101408.75;21081989;28;20044;-61
2023/06/05 01:43:15;;;;;;;2.13;1.92;;;;;;;26.64;37.03;101425.25;21084417;28;20395;-62
2023/06/05 01:53:16;;;;;;;2.30;2.10;;;;;;;26.65;37.18;101438.16;21084107;28;20074;-62
2023/06/05 02:03:23;;;;;;;2.53;2.33;;;;;;;26.61;37.33;101437.94;21082132;28;20032;-62
2023/06/05 02:13:25;;;;;;;2.90;2.30;;;;;;;26.64;37.22;101442.09;21082466;28;20540;-62
2023/06/05 02:23:26;;;;;;;2.50;2.30;;;;;;;26.65;37.24;101455.00;21081427;28;20040;-63
2023/06/05 02:33:27;;;;;;;2.30;2.10;;;;;;;26.60;37.34;101446.66;21078760;28;20639;-62
2023/06/05 02:43:29;;;;;;;2.40;2.20;;;;;;;26.60;37.24;101446.66;21078262;28;20368;-63
2023/06/05 02:53:31;;;;;;;2.20;2.00;;;;;;;26.61;37.48;101437.94;21080810;28;20036;-63
2023/06/05 03:03:33;;;;;;;2.78;2.47;;;;;;;26.60;37.21;101436.28;21079674;28;20441;-62
2023/06/05 03:13:37;;;;;;;2.95;2.10;;;;;;;26.56;37.20;101445.63;21079837;28;20165;-62
2023/06/05 03:23:38;;;;;;;2.65;2.42;;;;;;;26.60;37.56;101463.50;21078982;28;20040;-62
2023/06/05 03:33:39;;;;;;;3.08;2.47;;;;;;;26.56;37.39;101456.84;21077795;28;20040;-64
2023/06/05 03:43:41;;;;;;;2.05;1.85;;;;;;;26.55;37.44;101443.97;21077514;28;20069;-63
2023/06/05 03:53:43;;;;;;;3.28;2.60;;;;;;;26.48;37.48;101437.88;21088278;28;20044;-64
2023/06/05 04:03:44;;;;;;;2.67;2.10;;;;;;;26.49;37.46;101429.19;21092159;28;20109;-62
2023/06/05 04:13:49;;;;;;;2.95;2.65;;;;;;;26.28;37.15;101377.31;21092164;28;20089;-62
2023/06/05 04:23:51;;;;;;;2.30;2.10;;;;;;;26.52;37.51;101410.88;21091301;28;20349;-62
2023/06/05 04:33:56;;;;;;;2.42;2.10;;;;;;;26.50;37.48;101414.00;21088353;28;20040;-63
2023/06/05 04:44:00;;;;;;;2.97;2.20;;;;;;;26.51;37.42;101414.84;21088050;28;20391;-62
2023/06/05 04:54:05;;;;;;;2.35;2.15;;;;;;;26.46;37.54;101403.69;21087947;28;20048;-62
2023/06/05 05:04:06;;;;;;;2.13;1.83;;;;;;;26.46;37.37;101406.50;21084875;28;20094;-61
2023/06/05 05:14:07;;;;;;;2.85;2.50;;;;;;;26.46;37.27;101392.47;21085719;28;20044;-62
2023/06/05 05:24:09;;;;;;;2.28;2.05;;;;;;;26.44;37.53;101397.56;21085677;28;20047;-62
2023/06/05 05:34:11;;;;;;;2.63;2.20;;;;;;;26.43;37.28;101390.25;21085040;28;20024;-62
2023/06/05 05:44:12;;;;;;;2.33;2.10;;;;;;;26.41;37.59;101372.91;21083989;28;20099;-62
2023/06/05 05:54:13;;;;;;;1.88;1.70;;;;;;;26.41;37.43;101370.09;21083088;28;20051;-60
2023/06/05 06:04:18;;;;;;;2.28;2.00;;;;;;;26.40;37.64;101360.00;21082326;28;20090;-60
2023/06/05 06:14:25;;;;;;;2.42;2.22;;;;;;;26.36;37.59;101351.38;21081117;28;20052;-60
2023/06/05 06:24:36;;;;;;;3.22;2.20;;;;;;;26.33;37.42;101347.19;21080612;28;20021;-62
2023/06/05 06:34:37;;;;;;;2.20;2.00;;;;;;;26.35;37.67;101344.94;21079621;28;20173;-62
2023/06/05 06:44:39;;;;;;;3.10;2.53;;;;;;;26.32;37.38;101331.50;21078945;28;20048;-61
2023/06/05 06:54:40;;;;;;;2.97;2.20;;;;;;;26.32;37.48;101330.69;21078256;28;20552;-61
2023/06/05 07:04:45;;;;;;;2.58;2.38;;;;;;;26.28;37.56;101338.88;21075743;28;20087;-62
2023/06/05 07:14:50;;;;;;;2.15;1.88;;;;;;;26.24;37.53;101332.22;21076375;28;20044;-61
2023/06/05 07:24:53;;;;;;;2.28;2.08;;;;;;;26.27;37.37;101330.78;21075773;28;20131;-62
2023/06/05 07:34:58;;;;;;;2.85;2.05;;;;;;;26.26;37.44;101318.72;21075957;28;20089;-61
2023/06/05 07:45:05;;;;;;;2.45;2.25;;;;;;;26.26;37.43;101326.31;21075813;28;20036;-62
2023/06/05 07:55:07;;;;;;;2.75;2.10;;;;;;;26.22;37.69;101328.91;21075239;28;20093;-62
2023/06/05 08:05:11;;;;;;;2.45;2.03;;;;;;;26.15;37.75;101316.41;21075403;28;20036;-62
2023/06/05 08:15:12;;;;;;;2.28;2.00;;;;;;;26.18;37.72;101319.44;21074836;28;20048;-61
2023/06/05 08:25:14;;;;;;;2.50;2.30;;;;;;;26.18;37.73;101338.25;21073923;28;20044;-61
2023/06/05 08:35:15;;;;;;;2.88;2.40;;;;;;;26.10;37.65;101331.34;21077220;28;20109;-62
2023/06/05 08:45:17;;;;;;;2.00;1.80;;;;;;;26.12;37.66;101337.50;21087784;28;20109;-62
2023/06/05 08:55:18;;;;;;;3.72;2.35;;;;;;;26.12;37.71;101345.91;21086434;28;20070;-62
2023/06/05 09:05:20;;;;;;;3.25;2.42;;;;;;;26.10;37.86;101339.75;21086832;28;20039;-62
2023/06/05 09:15:26;;;;;;;3.13;2.15;;;;;;;26.07;37.74;101337.56;21086584;28;20028;-62
2023/06/05 09:25:45;;;;;;;2.43;2.20;;;;;;;26.02;37.99;101334.84;21085345;28;20463;-62
2023/06/05 09:35:47;;;;;;;2.38;2.13;;;;;;;26.06;37.72;101341.50;21084936;28;20056;-61
2023/06/05 09:45:50;;;;;;;2.40;2.20;;;;;;;26.02;37.80;101334.84;21082972;28;20447;-61
2023/06/05 09:55:52;;;;;;;3.08;2.38;;;;;;;26.01;37.81;101334.00;21083188;28;20364;-62
2023/06/05 10:05:54;;;;;;;2.75;2.55;;;;;;;25.93;38.02;101336.69;21080398;28;20391;-62
2023/06/05 10:15:55;;;;;;;2.50;2.30;;;;;;;25.97;37.93;101343.34;21080743;28;20078;-62
2023/06/05 10:25:58;;;;;;;2.50;2.30;;;;;;;25.95;37.63;101340.84;21080802;28;20102;-62
2023/06/05 10:36:24;;;;;;;2.55;2.20;;;;;;;25.92;37.84;101346.25;21077409;28;20093;-62
2023/06/05 10:46:34;;;;;;;2.65;2.42;;;;;;;25.93;37.82;101336.69;21078151;28;20161;-62
2023/06/05 10:56:56;;;;;;;3.25;2.20;;;;;;;25.84;38.22;101350.56;21076885;28;20032;-62
2023/06/05 11:07:21;;;;;;;2.28;2.08;;;;;;;25.84;37.81;101329.00;21077480;28;20121;-62
2023/06/05 11:17:43;;;;;;;2.47;2.08;;;;;;;25.85;38.07;101347.47;21077404;28;20341;-62
2023/06/05 11:27:46;;;;;;;2.28;2.03;;;;;;;25.92;37.69;101343.44;21076860;28;20098;-63
2023/06/05 11:37:48;;;;;;;2.30;2.10;;;;;;;25.84;38.19;101323.38;21076448;28;20044;-63
2023/06/05 11:47:49;;;;;;;2.78;2.35;;;;;;;25.90;37.69;101323.28;21074950;28;20070;-63
2023/06/05 11:57:51;;;;;;;2.60;2.10;;;;;;;25.89;37.65;101336.47;21074491;28;20036;-63
2023/06/05 12:07:53;;;;;;;2.10;1.90;;;;;;;25.91;37.65;101338.97;21074771;28;20085;-63
2023/06/05 12:17:56;;;;;;;2.53;1.85;;;;;;;25.91;37.92;101338.97;21090115;28;20078;-62
2023/06/05 12:27:57;;;;;;;2.92;2.50;;;;;;;25.92;37.57;101341.47;21090107;28;20100;-61
2023/06/05 12:38:00;;;;;;;2.13;1.92;;;;;;;25.92;37.84;101335.84;21088225;28;20047;-62
2023/06/05 12:48:01;;;;;;;2.03;1.73;;;;;;;25.90;37.73;101326.09;21088719;28;20544;-62
2023/06/05 12:58:03;;;;;;;2.10;1.90;;;;;;;25.92;37.75;101324.63;21086323;28;20069;-61
2023/06/05 13:08:04;;;;;;;1.75;1.42;;;;;;;25.97;37.66;101309.69;21086365;28;20093;-61
2023/06/05 13:18:07;;;;;;;1.60;1.50;;;;;;;25.99;37.63;101302.66;21086025;28;20036;-61
2023/06/05 13:28:09;;;;;;;1.70;1.48;;;;;;;26.01;37.43;101289.16;21083983;28;20040;-61
2023/06/05 13:38:10;;;;;;;1.55;1.45;;;;;;;26.01;37.59;101277.09;21083922;28;20093;-61
2023/06/05 13:48:11;;;;;;;2.17;1.60;;;;;;;26.05;37.43;101264.97;21083964;28;20047;-61
2023/06/05 13:58:13;;;;;;;1.25;1.15;;;;;;;26.09;37.47;101246.38;21081932;28;20141;-62
2023/06/05 14:08:14;;;;;;;1.70;1.50;;;;;;;26.09;37.07;101239.94;21081453;28;20036;-61
2023/06/05 14:18:15;;;;;;;1.63;1.40;;;;;;;26.10;37.18;101224.78;21080706;28;20105;-61
2023/06/05 14:28:22;;;;;;;2.08;1.27;;;;;;;26.07;37.14;101208.56;21079527;28;20044;-61
2023/06/05 14:38:23;;;;;;;1.20;1.10;;;;;;;26.15;37.27;101196.63;21078820;28;20048;-62
2023/06/05 14:48:24;;;;;;;1.55;1.20;;;;;;;26.16;37.13;101189.91;21079669;28;20077;-61
2023/06/05 14:58:26;;;;;;;1.63;1.20;;;;;;;26.21;37.13;101189.78;21078786;28;20036;-62
2023/06/05 15:08:27;;;;;;;1.63;1.15;;;;;;;26.19;37.19;101177.19;21077477;28;20047;-62
2023/06/05 15:18:28;;;;;;;1.50;1.30;;;;;;;26.19;37.16;101166.81;21076759;28;20457;-63
2023/06/05 15:28:30;;;;;;;1.10;1.00;;;;;;;26.20;37.15;101151.63;21076508;28;20032;-62
2023/06/05 15:38:31;;;;;;;2.75;1.30;;;;;;;26.21;37.17;101147.72;21075934;28;20036;-62
2023/06/05 15:48:33;;;;;;;1.48;1.30;;;;;;;26.22;36.99;101135.34;21085440;28;20093;-62
2023/06/05 15:58:34;;;;;;;1.08;1.00;;;;;;;26.18;37.39;101120.28;21092970;28;20028;-61
2023/06/05 16:08:44;;;;;;;1.20;1.10;;;;;;;26.12;37.08;101093.50;21091347;28;20040;-62
2023/06/05 16:18:46;;;;;;;1.40;0.98;;;;;;;26.20;37.15;101075.91;21090667;28;20048;-62
2023/06/05 16:28:47;;;;;;;0.98;0.90;;;;;;;26.24;37.32;101085.34;21090674;28;20044;-62
2023/06/05 16:38:49;;;;;;;1.75;0.90;;;;;;;26.22;37.13;101056.81;21089275;28;20040;-62
2023/06/05 16:48:53;;;;;;;2.58;0.85;;;;;;;26.26;37.30;101049.44;21088283;28;20445;-62
2023/06/05 16:58:55;;;;;;;1.73;0.85;;;;;;;26.28;37.06;101037.88;21087748;28;20048;-63
2023/06/05 17:08:58;;;;;;;0.98;0.90;;;;;;;26.23;36.89;101010.78;21087355;28;20078;-62
2023/06/05 17:19:00;;;;;;;1.13;0.85;;;;;;;26.24;37.13;101006.00;21085670;28;20081;-62
2023/06/05 17:29:01;;;;;;;1.00;0.90;;;;;;;26.30;36.94;100999.97;21085808;28;20032;-62
2023/06/05 17:39:02;;;;;;;0.90;0.85;;;;;;;26.31;37.07;100987.59;21084958;28;20039;-61
2023/06/05 17:49:04;;;;;;;1.13;1.02;;;;;;;26.16;37.06;100954.28;21083934;28;20040;-61
2023/06/05 17:59:06;;;;;;;0.93;0.80;;;;;;;26.18;37.51;100949.19;21083335;28;20039;-61
2023/06/05 18:09:08;;;;;;;1.48;0.70;;;;;;;26.32;37.25;100949.97;21081332;28;20048;-61
2023/06/05 18:19:09;;;;;;;1.00;0.90;;;;;;;26.31;37.17;100944.69;21080516;28;20097;-61
2023/06/05 18:29:11;;;;;;;0.82;0.77;;;;;;;26.35;37.17;100932.50;21080739;28;20028;-61
2023/06/05 18:39:13;;;;;;;0.98;0.77;;;;;;;26.33;37.23;100920.75;21079405;28;20040;-62
2023/06/05 18:49:14;;;;;;;1.02;0.70;;;;;;;26.34;37.30;100904.75;21078516;28;20540;-61
2023/06/05 18:59:20;;;;;;;1.48;1.00;;;;;;;26.39;37.03;100915.00;21078366;28;20109;-61
2023/06/05 19:09:21;;;;;;;1.33;0.90;;;;;;;26.18;37.19;100859.44;21077733;28;20483;-64
2023/06/05 19:19:22;;;;;;;0.70;0.70;;;;;;;26.39;37.12;100904.66;21076224;28;20475;-62
2023/06/05 19:29:24;;;;;;;0.70;0.70;;;;;;;26.38;37.44;100893.72;21076375;28;20370;-62
2023/06/05 19:39:27;;;;;;;0.80;0.75;;;;;;;26.40;37.24;100885.84;21076102;28;20040;-62
2023/06/05 19:49:31;;;;;;;1.30;0.90;;;;;;;26.44;37.08;100882.09;21073741;28;20445;-61
2023/06/05 19:59:33;;;;;;;1.42;0.90;;;;;;;26.43;37.09;100873.94;21075434;28;20403;-62
2023/06/05 20:09:34;;;;;;;1.38;1.00;;;;;;;26.44;37.35;100867.25;21075092;28;20032;-62
2023/06/05 20:19:36;;;;;;;0.80;0.80;;;;;;;26.44;36.95;100848.44;21074833;28;20117;-62
2023/06/05 20:29:37;;;;;;;0.98;0.88;;;;;;;26.46;37.29;100856.50;21075183;28;20040;-62
2023/06/05 20:39:40;;;;;;;1.20;0.80;;;;;;;26.48;37.24;100851.41;21089445;28;20036;-61
2023/06/05 20:49:41;;;;;;;1.70;1.05;;;;;;;26.48;37.24;100848.59;21088366;28;20036;-60
2023/06/05 20:59:43;;;;;;;0.88;0.88;;;;;;;26.48;37.21;100848.59;21087273;28;20047;-61
2023/06/05 21:09:47;;;;;;;1.95;1.05;;;;;;;26.51;37.27;100847.97;21086987;28;20070;-62
2023/06/05 21:19:48;;;;;;;1.90;1.25;;;;;;;26.49;37.14;100834.25;21086511;28;20047;-62
2023/06/05 21:29:50;;;;;;;2.65;1.10;;;;;;;26.54;37.19;100836.09;21085481;28;20482;-62
2023/06/05 21:39:51;;;;;;;0.98;0.88;;;;;;;26.54;37.32;100824.88;21084283;28;20471;-62
2023/06/05 21:49:52;;;;;;;0.90;0.80;;;;;;;26.53;37.06;100823.22;21082766;28;20117;-61
2023/06/05 21:59:54;;;;;;;0.98;0.70;;;;;;;26.57;37.03;100822.25;21082268;28;20036;-62
2023/06/05 22:09:58;;;;;;;1.10;1.00;;;;;;;26.57;37.27;100819.44;21081847;28;20036;-62
2023/06/05 22:20:08;;;;;;;1.98;1.27;;;;;;;26.57;37.09;100824.22;21080757;28;20052;-61
2023/06/05 22:30:13;;;;;;;1.83;1.25;;;;;;;26.58;36.99;100831.50;21080801;28;20040;-61
2023/06/05 22:40:14;;;;;;;1.25;1.00;;;;;;;26.49;37.05;100817.44;21079163;28;20040;-61
2023/06/05 22:50:16;;;;;;;1.58;1.33;;;;;;;26.56;37.23;100839.41;21079206;28;20066;-61
2023/06/05 23:00:20;;;;;;;1.27;1.17;;;;;;;26.57;37.24;100849.47;21077276;28;20125;-62
2023/06/05 23:10:27;;;;;;;1.23;1.13;;;;;;;26.39;37.26;100816.81;21077175;28;20541;-61
2023/06/05 23:20:28;;;;;;;;;;;;;;;26.57;37.18;100846.66;21077446;28;20032;-61
2023/06/05 23:30:29;;;;;;;2.40;1.58;;;;;;;26.61;37.27;100854.13;21076664;28;19962;-62
2023/06/05 23:40:31;;;;;;;1.52;1.38;;;;;;;26.56;37.46;100843.03;21075886;28;20040;-62
2023/06/05 23:50:33;;;;;;;1.33;1.23;;;;;;;26.56;37.04;100851.44;21075413;28;20101;-61
